Time;durP1;ratioP1;P1;durP2;ratioP2;P2;SDS_P1;SDS_P2;PMS_P1;PMS_P2;Temp;Humidity;BMP_temperature;BMP_pressure;BME280_temperature;BME280_humidity;BME280_pressure;Samples;Min_cycle;Max_cycle;Signal;HPM_P1;HPM_P2
2022/04/26 03:36:59;;;;;;;9.70;6.00;;;;;;;11.69;59.48;99513.13;4442739;32;34496;-80
2022/04/26 03:39:34;;;;;;;11.40;6.25;;;;;;;11.84;58.97;99519.16;4440972;32;31844;-80
2022/04/26 03:42:05;;;;;;;11.55;6.43;;;;;;;11.83;59.08;99518.31;4440627;32;34774;-80
2022/04/26 03:44:33;;;;;;;9.45;5.82;;;;;;;11.65;59.47;99520.09;4440573;32;33872;-80
2022/04/26 03:47:04;;;;;;;10.15;6.62;;;;;;;11.76;59.22;99528.47;4440618;32;31733;-80
2022/04/26 03:49:32;;;;;;;9.80;6.57;;;;;;;11.74;59.33;99530.59;4440689;32;33648;-81
2022/04/26 03:52:01;;;;;;;9.52;6.43;;;;;;;11.43;60.29;99539.66;4440649;32;35129;-81
2022/04/26 03:54:35;;;;;;;9.63;6.43;;;;;;;11.41;60.61;99540.94;4427746;32;33136;-81
2022/04/26 03:57:08;;;;;;;11.18;6.97;;;;;;;11.62;60.05;99537.88;4440954;32;34037;-80
2022/04/26 03:59:35;;;;;;;10.77;6.68;;;;;;;11.58;60.15;99555.03;4427638;32;35312;-80
2022/04/26 04:02:06;;;;;;;9.90;6.40;;;;;;;11.51;60.35;99555.06;4440645;32;34527;-83
2022/04/26 04:04:40;;;;;;;10.27;6.37;;;;;;;11.44;60.71;99551.50;4440292;32;35923;-73
2022/04/26 04:07:10;;;;;;;12.07;6.53;;;;;;;11.28;61.46;99555.56;4453228;32;34133;-81
2022/04/26 04:09:38;;;;;;;11.12;6.80;;;;;;;11.31;61.65;99566.13;4440284;32;34388;-81
2022/04/26 04:12:08;;;;;;;10.30;7.05;;;;;;;11.42;63.12;99564.59;4440437;32;35053;-82
2022/04/26 04:14:36;;;;;;;10.88;6.95;;;;;;;11.48;61.29;99559.09;4426232;32;35144;-82
2022/04/26 04:17:04;;;;;;;10.13;6.80;;;;;;;11.43;61.18;99569.88;4440002;32;33306;-81
2022/04/26 04:19:32;;;;;;;9.35;6.20;;;;;;;11.56;60.89;99569.00;4440312;32;33934;-80
2022/04/26 04:22:04;;;;;;;11.45;6.95;;;;;;;11.38;61.42;99568.84;4427532;32;33003;-81
2022/04/26 04:24:32;;;;;;;10.45;7.18;;;;;;;11.48;61.20;99570.09;4427422;32;32424;-81
2022/04/26 04:27:00;;;;;;;10.23;6.90;;;;;;;11.74;60.51;99579.25;4440422;32;32502;-82
2022/04/26 04:29:28;;;;;;;15.48;8.93;;;;;;;11.64;60.90;99578.91;4427639;32;33712;-81
2022/04/26 04:31:55;;;;;;;12.65;7.95;;;;;;;11.75;60.44;99581.78;4440253;32;35277;-81
2022/04/26 04:34:23;;;;;;;11.82;7.53;;;;;;;11.90;60.04;99580.69;4440014;32;33501;-82
2022/04/26 04:36:51;;;;;;;13.60;6.93;;;;;;;11.70;60.63;99589.03;4427294;32;34376;-81
2022/04/26 04:39:20;;;;;;;10.18;6.80;;;;;;;11.60;62.49;99588.66;4427195;32;34339;-81
2022/04/26 04:41:51;;;;;;;10.05;6.65;;;;;;;11.80;61.16;99590.25;4427556;32;35886;-81
2022/04/26 04:44:21;;;;;;;10.82;6.57;;;;;;;11.88;60.67;99597.41;4439680;32;33866;-81
2022/04/26 04:46:49;;;;;;;10.07;6.40;;;;;;;11.98;60.25;99597.75;4427041;32;33275;-81
2022/04/26 04:49:17;;;;;;;10.63;7.28;;;;;;;11.92;60.52;99598.66;4439678;32;34546;-80
2022/04/26 04:51:45;;;;;;;10.57;6.10;;;;;;;12.07;60.22;99599.19;4439934;32;35300;-82
2022/04/26 04:54:12;;;;;;;10.15;6.32;;;;;;;11.82;60.71;99614.78;4426706;32;34780;-81
2022/04/26 04:56:46;;;;;;;10.52;6.32;;;;;;;12.25;59.54;99608.62;4439498;32;33050;-83
2022/04/26 04:59:19;;;;;;;10.80;7.07;;;;;;;12.27;59.57;99614.75;4440177;32;34449;-83
2022/04/26 05:01:47;;;;;;;11.82;7.15;;;;;;;12.03;60.35;99619.94;4439046;32;34702;-83
2022/04/26 05:04:15;;;;;;;13.18;6.45;;;;;;;12.39;59.42;99613.78;4445989;32;34881;-82
2022/04/26 05:06:43;;;;;;;10.48;6.55;;;;;;;12.51;58.90;99624.91;4442253;32;33774;-82
2022/04/26 05:09:30;;;;;;;11.40;6.60;;;;;;;12.52;58.59;99630.19;4442526;32;34546;-83
2022/04/26 05:12:38;;;;;;;12.85;6.55;;;;;;;12.19;59.68;99630.44;4443982;32;33304;-83
2022/04/26 05:15:35;;;;;;;9.35;5.97;;;;;;;12.36;59.22;99636.22;4441206;32;32558;-82
2022/04/26 05:18:27;;;;;;;10.07;6.50;;;;;;;12.18;59.79;99638.91;4444917;32;31604;-82
2022/04/26 05:21:26;;;;;;;10.05;6.03;;;;;;;12.41;59.28;99641.06;4457327;32;33736;-80
2022/04/26 05:27:10;;;;;;;10.30;6.47;;;;;;;12.60;58.63;99645.59;4443556;32;35114;-82
2022/04/26 05:30:00;;;;;;;10.57;6.18;;;;;;;12.27;59.29;99645.84;4440849;32;33625;-83
2022/04/26 05:32:47;;;;;;;11.40;6.45;;;;;;;12.41;59.00;99649.34;4440168;32;34585;-83
2022/04/26 05:35:33;;;;;;;11.02;6.12;;;;;;;11.74;60.80;99651.56;4441980;32;35041;-84
2022/04/26 05:38:22;;;;;;;10.93;6.37;;;;;;;12.44;59.50;99648.88;4454484;32;34232;-84
2022/04/26 05:41:15;;;;;;;10.05;6.00;;;;;;;12.69;58.00;99652.53;4443010;32;33771;-84
2022/04/26 05:43:59;;;;;;;11.00;6.32;;;;;;;12.71;57.88;99647.62;4441755;32;33683;-83
2022/04/26 05:46:47;;;;;;;10.88;6.57;;;;;;;12.99;57.61;99652.72;4442131;32;34356;-83
2022/04/26 05:49:32;;;;;;;10.45;6.12;;;;;;;13.04;57.90;99647.34;4441873;32;33688;-83
2022/04/26 05:52:24;;;;;;;10.77;6.05;;;;;;;13.14;57.19;99661.44;4441745;32;34019;-83
2022/04/26 05:55:14;;;;;;;8.95;5.50;;;;;;;13.81;55.38;99653.31;4442467;32;35098;-83
2022/04/26 05:58:01;;;;;;;11.88;6.50;;;;;;;12.97;57.35;99660.34;4454105;32;34458;-84
2022/04/26 06:00:57;;;;;;;10.23;5.75;;;;;;;13.58;56.24;99662.31;4442575;32;34168;-83
2022/04/26 06:03:47;;;;;;;11.07;5.70;;;;;;;13.47;55.50;99669.41;4442033;32;33985;-83
2022/04/26 06:06:30;;;;;;;9.38;5.80;;;;;;;13.31;56.33;99669.16;4453968;32;33685;-83
2022/04/26 06:09:20;;;;;;;9.35;5.45;;;;;;;13.56;55.71;99661.69;4430467;32;32838;-83
2022/04/26 06:12:05;;;;;;;8.93;5.30;;;;;;;13.89;55.07;99665.97;4441872;32;34296;-83
2022/04/26 06:14:54;;;;;;;8.00;5.47;;;;;;;14.24;53.90;99663.38;4454073;32;34296;-84
2022/04/26 06:17:52;;;;;;;9.40;5.43;;;;;;;13.79;54.37;99672.00;4442800;32;33480;-84
2022/04/26 06:20:51;;;;;;;9.10;5.37;;;;;;;13.20;56.21;99662.47;4453940;32;35377;-84
2022/04/26 06:23:37;;;;;;;10.95;6.30;;;;;;;13.25;55.79;99665.41;4442303;32;32398;-84
2022/04/26 06:26:37;;;;;;;11.10;6.82;;;;;;;13.54;55.28;99665.75;4429218;32;32213;-84
2022/04/26 06:29:44;;;;;;;13.10;7.10;;;;;;;14.21;55.14;99670.22;4433186;32;32779;-83
2022/04/26 06:36:54;;;;;;;7.43;4.60;;;;;;;13.88;53.74;99658.75;4445811;32;32890;-82
2022/04/26 06:44:50;;;;;;;10.93;5.12;;;;;;;14.44;52.35;99655.66;4453296;32;32800;-84
2022/04/26 06:47:49;;;;;;;8.38;5.32;;;;;;;14.77;51.85;99663.47;4453918;32;32620;-84
2022/04/26 06:50:25;;;;;;;24.42;15.50;;;;;;;14.93;50.79;99664.69;4442524;32;34063;-84
2022/04/26 06:53:05;;;;;;;12.73;6.43;;;;;;;15.36;49.65;99654.12;4441137;32;34075;-84
2022/04/26 06:55:33;;;;;;;7.85;5.00;;;;;;;15.55;48.94;99662.28;4441077;32;34538;-84
2022/04/26 06:58:10;;;;;;;8.07;4.68;;;;;;;15.75;48.63;99660.00;4441108;32;35183;-84
2022/04/26 07:00:38;;;;;;;9.40;5.53;;;;;;;15.75;48.28;99665.53;4441170;32;34110;-83
2022/04/26 07:03:06;;;;;;;7.43;4.32;;;;;;;15.94;48.32;99663.44;4428726;32;34068;-84
2022/04/26 07:05:34;;;;;;;7.10;3.90;;;;;;;15.99;47.01;99680.16;4456710;32;34024;-83
2022/04/26 07:08:01;;;;;;;7.32;4.20;;;;;;;15.66;46.93;99669.75;4456541;32;35309;-83
2022/04/26 07:10:29;;;;;;;8.60;5.35;;;;;;;16.20;46.83;99671.19;4456394;32;35725;-84
2022/04/26 07:12:57;;;;;;;54.72;31.80;;;;;;;16.31;47.02;99664.75;4432653;32;33794;-84
2022/04/26 07:15:25;;;;;;;15.25;8.80;;;;;;;16.71;45.77;99670.25;4440624;32;34542;-84
2022/04/26 07:18:09;;;;;;;7.45;4.32;;;;;;;16.82;45.68;99662.12;4441096;32;35268;-83
2022/04/26 07:20:37;;;;;;;9.65;4.45;;;;;;;16.29;45.33;99669.69;4440816;32;34355;-84
2022/04/26 07:23:04;;;;;;;9.15;4.60;;;;;;;16.55;45.61;99671.03;4440961;32;33411;-84
2022/04/26 07:25:32;;;;;;;6.85;4.30;;;;;;;16.60;45.70;99673.06;4441193;32;34733;-83
2022/04/26 07:27:59;;;;;;;7.30;4.32;;;;;;;16.79;45.17;99669.84;4440955;32;34512;-83
2022/04/26 07:30:34;;;;;;;6.20;3.20;;;;;;;17.21;44.40;99679.69;4440947;32;34729;-76
2022/04/26 07:35:50;;;;;;;7.53;4.60;;;;;;;17.41;43.13;99674.47;4442829;32;34312;-83
2022/04/26 07:38:19;;;;;;;11.88;5.40;;;;;;;16.38;44.94;99682.06;4440640;32;35161;-83
2022/04/26 07:40:47;;;;;;;9.07;5.65;;;;;;;17.05;44.93;99678.59;4441198;32;34253;-84
2022/04/26 07:43:16;;;;;;;9.45;5.30;;;;;;;17.23;44.29;99681.09;4442915;32;34010;-84
2022/04/26 07:45:59;;;;;;;8.45;4.97;;;;;;;17.22;44.02;99679.44;4454779;32;33703;-84
2022/04/26 07:48:30;;;;;;;8.32;4.22;;;;;;;16.74;43.99;99680.00;4455506;32;34714;-84
2022/04/26 07:51:00;;;;;;;7.18;3.95;;;;;;;17.13;44.71;99686.47;4428440;32;33274;-83
2022/04/26 07:53:28;;;;;;;6.62;3.90;;;;;;;17.26;42.80;99680.59;4428935;32;34441;-85
2022/04/26 07:55:56;;;;;;;8.05;3.78;;;;;;;17.43;42.61;99689.75;4440485;32;33798;-83
2022/04/26 07:58:23;;;;;;;7.37;4.28;;;;;;;17.89;42.85;99687.66;4442544;32;35228;-76
2022/04/26 08:00:51;;;;;;;12.05;7.78;;;;;;;17.48;40.64;99694.56;4456990;32;33850;-82
2022/04/26 08:03:20;;;;;;;6.65;4.15;;;;;;;17.94;42.39;99696.06;4440609;32;34125;-82
2022/04/26 08:05:49;;;;;;;6.15;3.62;;;;;;;18.36;40.76;99698.25;4427980;32;32349;-82
2022/04/26 08:08:18;;;;;;;7.75;4.68;;;;;;;18.52;40.18;99694.53;4440649;32;35134;-81
2022/04/26 08:10:46;;;;;;;7.65;4.65;;;;;;;17.86;41.13;99699.28;4440420;32;32577;-81
2022/04/26 08:13:13;;;;;;;8.30;4.32;;;;;;;18.17;40.48;99689.44;4427608;32;34596;-81
2022/04/26 08:18:44;;;;;;;13.05;7.93;;;;;;;18.39;39.63;99689.37;4454268;32;34346;-81
2022/04/26 08:21:17;;;;;;;7.32;3.97;;;;;;;18.81;38.74;99695.19;4440505;32;33966;-80
2022/04/26 08:29:24;;;;;;;16.42;11.05;;;;;;;18.68;39.71;99685.31;4442702;32;34579;-80
2022/04/26 08:31:55;;;;;;;9.07;3.92;;;;;;;19.14;38.58;99693.22;4439873;32;34108;-80
2022/04/26 08:34:28;;;;;;;6.43;3.00;;;;;;;18.80;37.09;99699.06;4440053;32;32066;-80
2022/04/26 08:36:58;;;;;;;3.55;1.58;;;;;;;19.56;36.16;99696.91;4434736;32;32903;-78
2022/04/26 08:39:29;;;;;;;3.65;1.80;;;;;;;19.65;34.11;99700.03;4455534;32;34109;-81
2022/04/26 08:41:58;;;;;;;3.75;1.58;;;;;;;19.77;35.36;99703.47;4455241;32;34030;-81
2022/04/26 08:44:28;;;;;;;4.37;1.85;;;;;;;19.67;33.64;99703.41;4449480;32;33939;-80
2022/04/26 08:52:50;;;;;;;5.07;2.87;;;;;;;20.28;33.78;99695.38;4460976;32;34237;-81
2022/04/26 08:55:20;;;;;;;4.18;2.53;;;;;;;20.48;33.95;99695.47;4431603;32;33651;-81
2022/04/26 08:57:48;;;;;;;4.18;1.98;;;;;;;20.66;33.71;99696.94;4448340;32;33764;-80
2022/04/26 09:00:17;;;;;;;5.30;2.30;;;;;;;20.08;31.47;99704.50;4445590;32;34376;-80
2022/04/26 09:03:03;;;;;;;4.25;2.17;;;;;;;20.50;33.55;99701.63;4454776;32;34232;-84
2022/04/26 09:05:31;;;;;;;3.40;1.87;;;;;;;20.77;32.23;99695.00;4450231;32;33546;-83
2022/04/26 09:08:02;;;;;;;5.07;1.80;;;;;;;20.96;31.43;99698.91;4445223;32;34292;-77
2022/04/26 09:10:33;;;;;;;2.95;1.50;;;;;;;21.31;33.10;99696.19;4448043;32;34020;-77
2022/04/26 09:13:40;;;;;;;3.50;1.75;;;;;;;20.83;31.89;99699.44;4447277;32;34594;-78
2022/04/26 09:16:19;;;;;;;3.03;1.55;;;;;;;21.17;29.76;99700.62;4432450;32;33057;-79
2022/04/26 09:18:58;;;;;;;3.78;1.85;;;;;;;21.45;29.51;99692.84;4444867;32;33448;-78
2022/04/26 09:21:27;;;;;;;2.97;1.30;;;;;;;21.58;30.88;99695.03;4449458;32;34420;-79
2022/04/26 09:24:07;;;;;;;3.40;1.40;;;;;;;21.88;29.23;99694.97;4447550;32;34742;-78
2022/04/26 09:26:39;;;;;;;2.03;1.20;;;;;;;20.99;28.54;99699.19;4448264;32;31832;-79
2022/04/26 09:29:08;;;;;;;3.87;1.62;;;;;;;21.87;28.97;99695.25;4450347;32;33961;-79
2022/04/26 09:31:37;;;;;;;3.28;1.60;;;;;;;22.25;28.90;99704.94;4448407;32;35424;-79
2022/04/26 09:34:13;;;;;;;3.87;1.55;;;;;;;22.62;28.12;99704.50;4447154;32;34059;-79
2022/04/26 09:36:50;;;;;;;4.05;2.00;;;;;;;22.44;28.65;99708.78;4460447;32;34017;-79
2022/04/26 09:39:21;;;;;;;3.95;1.52;;;;;;;22.40;27.69;99693.69;4446950;32;33930;-79
2022/04/26 09:42:33;;;;;;;6.30;1.77;;;;;;;22.29;26.20;99706.88;4450477;32;35977;-79
2022/04/26 09:45:15;;;;;;;14.05;2.80;;;;;;;22.25;25.71;99702.16;4447712;32;33981;-79
2022/04/26 09:47:43;;;;;;;4.50;1.62;;;;;;;22.39;26.80;99692.03;4434958;32;32786;-79
2022/04/26 09:50:14;;;;;;;4.12;1.70;;;;;;;22.88;28.41;99699.59;4434679;32;35388;-79
2022/04/26 09:53:19;;;;;;;5.43;2.08;;;;;;;23.42;27.55;99685.44;4446637;32;34588;-79
2022/04/26 09:56:51;;;;;;;4.90;2.28;;;;;;;23.70;26.03;99689.44;4451841;32;32403;-79
2022/04/26 09:59:46;;;;;;;4.18;2.00;;;;;;;23.87;25.41;99687.00;4459435;32;33906;-79
2022/04/26 10:10:06;;;;;;;4.25;2.30;;;;;;;23.92;25.90;99697.34;4458009;32;34157;-78
2022/04/26 10:16:02;;;;;;;3.35;1.90;;;;;;;24.52;26.31;99683.72;4460967;32;34450;-79
2022/04/26 10:18:31;;;;;;;4.78;2.53;;;;;;;24.75;26.32;99681.97;4446487;32;35344;-78
2022/04/26 10:21:24;;;;;;;4.43;2.37;;;;;;;24.75;25.75;99670.75;4435483;32;35170;-79
2022/04/26 10:23:52;;;;;;;4.90;2.05;;;;;;;25.17;26.75;99676.31;4478616;32;33301;-78
2022/04/26 10:26:24;;;;;;;5.32;2.45;;;;;;;25.23;26.00;99663.03;4449137;32;34288;-79
2022/04/26 10:28:59;;;;;;;5.85;2.17;;;;;;;25.52;25.44;99660.78;4436199;32;33544;-83
2022/04/26 10:31:47;;;;;;;5.80;2.40;;;;;;;25.40;25.08;99660.44;4446521;32;35197;-83
2022/04/26 10:34:31;;;;;;;5.80;3.53;;;;;;;25.58;25.10;99656.75;4447125;32;33319;-82
2022/04/26 10:37:00;;;;;;;4.32;2.60;;;;;;;25.72;25.66;99656.81;4459853;32;33807;-78
2022/04/26 10:39:32;;;;;;;6.32;3.95;;;;;;;26.01;26.57;99661.31;4447583;32;34476;-78
2022/04/26 10:42:02;;;;;;;4.95;3.00;;;;;;;26.20;25.15;99660.06;4460970;32;33871;-79
2022/04/26 10:44:38;;;;;;;7.35;4.22;;;;;;;26.40;25.70;99658.84;4461119;32;33355;-78
2022/04/26 10:47:06;;;;;;;6.95;3.67;;;;;;;26.13;24.73;99641.94;4449262;32;33825;-76
2022/04/26 10:49:47;;;;;;;7.12;3.30;;;;;;;25.86;25.89;99645.59;4461316;32;34266;-79
2022/04/26 10:52:37;;;;;;;6.18;3.30;;;;;;;25.54;25.42;99652.06;4461561;32;34404;-79
2022/04/26 10:55:27;;;;;;;6.78;3.40;;;;;;;26.25;25.60;99645.06;4456955;32;34148;-78
2022/04/26 10:58:02;;;;;;;5.60;2.85;;;;;;;26.48;25.22;99643.19;4441497;32;34216;-78
2022/04/26 11:00:34;;;;;;;12.85;7.03;;;;;;;26.92;25.51;99640.44;4440945;32;35231;-78
2022/04/26 11:03:06;;;;;;;12.18;8.43;;;;;;;26.85;25.35;99650.47;4441293;32;34525;-79
2022/04/26 11:05:34;;;;;;;5.45;3.05;;;;;;;26.92;24.47;99650.87;4453779;32;33521;-79
2022/04/26 11:08:05;;;;;;;5.72;2.75;;;;;;;27.12;24.70;99646.78;4444694;32;34445;-77
2022/04/26 11:13:33;;;;;;;9.57;4.47;;;;;;;27.37;24.90;99639.62;4451044;32;34455;-78
2022/04/26 11:16:08;;;;;;;21.77;11.20;;;;;;;27.79;25.43;99644.72;4453009;32;34174;-77
2022/04/26 11:18:40;;;;;;;12.65;7.18;;;;;;;27.59;26.20;99645.28;4439902;32;33677;-77
2022/04/26 11:21:12;;;;;;;6.25;3.72;;;;;;;26.64;25.38;99652.13;4453637;32;34369;-77
2022/04/26 11:29:36;;;;;;;5.62;2.83;;;;;;;26.14;31.06;99652.03;4469343;32;33486;-76
2022/04/26 11:32:56;;;;;;;12.30;5.20;;;;;;;26.27;25.63;99646.41;4443535;32;33930;-77
2022/04/26 11:35:55;;;;;;;6.18;3.22;;;;;;;27.00;28.59;99638.88;4445887;32;32459;-77
2022/04/26 11:38:45;;;;;;;7.03;2.92;;;;;;;26.91;27.16;99640.75;4469313;32;33055;-76
2022/04/26 11:41:38;;;;;;;5.32;2.67;;;;;;;27.04;24.90;99636.25;4468711;32;33896;-75
2022/04/26 11:44:35;;;;;;;7.07;3.55;;;;;;;26.92;25.68;99634.81;4458413;32;32773;-75
2022/04/26 11:47:24;;;;;;;6.93;3.75;;;;;;;26.33;27.40;99635.91;4470224;32;34162;-75
2022/04/26 11:50:39;;;;;;;13.62;6.35;;;;;;;25.10;29.21;99636.53;4457999;32;33935;-75
2022/04/26 11:53:39;;;;;;;10.10;5.10;;;;;;;25.46;28.48;99639.56;4459146;32;34925;-75
2022/04/26 11:56:27;;;;;;;5.97;3.50;;;;;;;25.26;28.83;99632.34;4457853;32;34747;-75
2022/04/26 11:59:25;;;;;;;5.97;3.20;;;;;;;24.89;27.19;99633.19;4468880;32;34054;-75
2022/04/26 12:02:34;;;;;;;4.22;2.45;;;;;;;24.77;27.57;99634.78;4468908;32;33092;-75
2022/04/26 12:20:21;;;;;;;6.15;2.67;;;;;;;25.79;25.96;99617.06;4418121;32;34901;-76
2022/04/26 12:22:48;;;;;;;4.90;2.78;;;;;;;26.11;25.49;99618.91;4400054;32;34361;-76
2022/04/26 12:25:17;;;;;;;9.80;2.75;;;;;;;26.07;25.43;99615.06;4416404;32;33147;-75
2022/04/26 12:27:45;;;;;;;6.60;3.08;;;;;;;26.48;25.59;99623.47;4411807;32;34797;-74
2022/04/26 12:30:12;;;;;;;5.03;2.67;;;;;;;26.45;24.46;99622.13;4401882;32;34341;-75
2022/04/26 12:32:40;;;;;;;5.60;2.58;;;;;;;26.22;24.77;99609.94;4406543;32;35449;-74
2022/04/26 12:35:09;;;;;;;4.72;2.35;;;;;;;26.49;25.27;99599.81;4416810;32;33888;-80
2022/04/26 12:37:36;;;;;;;4.25;2.20;;;;;;;26.54;25.26;99594.91;4390990;32;35261;-79
2022/04/26 12:40:09;;;;;;;5.62;2.70;;;;;;;26.57;25.17;99601.88;4402671;32;32797;-80
2022/04/26 12:42:39;;;;;;;4.55;2.47;;;;;;;26.26;24.45;99598.88;4402967;32;34396;-79
2022/04/26 12:45:12;;;;;;;5.85;2.50;;;;;;;26.02;25.31;99595.47;4412715;32;33347;-78
2022/04/26 12:50:29;;;;;;;6.07;2.90;;;;;;;24.53;25.93;99595.59;4434895;32;33830;-78
2022/04/26 12:53:05;;;;;;;4.60;2.58;;;;;;;24.21;26.97;99596.31;4411743;32;34514;-78
2022/04/26 12:55:36;;;;;;;4.90;2.50;;;;;;;24.30;26.60;99594.53;4411931;32;34026;-80
2022/04/26 12:58:06;;;;;;;6.97;3.40;;;;;;;24.51;27.66;99590.28;4419106;32;34288;-80
2022/04/26 13:00:39;;;;;;;6.37;2.72;;;;;;;23.63;28.14;99600.09;4414721;32;35089;-80
2022/04/26 13:03:09;;;;;;;5.15;2.53;;;;;;;23.81;27.77;99589.25;4426056;32;34504;-80
2022/04/26 13:05:44;;;;;;;6.80;3.10;;;;;;;23.13;29.02;99597.81;4412361;32;31884;-81
2022/04/26 13:08:18;;;;;;;7.15;2.83;;;;;;;23.16;28.82;99589.66;4412842;32;33828;-80
2022/04/26 13:10:47;;;;;;;5.55;2.80;;;;;;;23.31;27.80;99594.28;4410564;32;32682;-80
2022/04/26 13:13:15;;;;;;;6.30;3.45;;;;;;;23.27;28.36;99594.03;4412255;32;34246;-81
2022/04/26 13:15:43;;;;;;;8.38;3.30;;;;;;;23.11;28.97;99588.87;4414176;32;34505;-81
2022/04/26 13:18:14;;;;;;;6.35;3.50;;;;;;;23.02;30.55;99588.66;4411811;32;35190;-81
2022/04/26 13:20:43;;;;;;;5.25;3.25;;;;;;;22.94;29.48;99589.28;4413174;32;34727;-81
2022/04/26 13:23:12;;;;;;;6.25;3.72;;;;;;;22.83;30.53;99584.91;4409206;32;35257;-82
2022/04/26 13:25:41;;;;;;;7.65;3.72;;;;;;;22.99;30.77;99584.47;4426646;32;33792;-76
2022/04/26 13:28:11;;;;;;;6.43;3.60;;;;;;;22.84;30.68;99587.41;4407061;32;33833;-77
2022/04/26 13:30:39;;;;;;;8.25;4.15;;;;;;;22.77;30.52;99589.66;4407787;32;35239;-77
2022/04/26 13:33:14;;;;;;;5.47;2.97;;;;;;;22.73;30.36;99582.19;4394775;32;33937;-76
2022/04/26 13:35:48;;;;;;;5.78;3.35;;;;;;;22.46;30.35;99588.22;4407715;32;33134;-77
2022/04/26 13:38:16;;;;;;;5.30;3.12;;;;;;;22.72;30.46;99580.50;4406756;32;34268;-81
2022/04/26 13:40:45;;;;;;;5.30;2.80;;;;;;;22.83;30.47;99582.94;4406858;32;35840;-76
2022/04/26 13:43:18;;;;;;;5.57;2.90;;;;;;;22.89;31.02;99587.38;4406274;32;33678;-76
2022/04/26 13:46:05;;;;;;;5.37;2.70;;;;;;;22.64;30.11;99581.97;4408433;32;34523;-76
2022/04/26 13:48:33;;;;;;;4.32;2.55;;;;;;;22.82;30.08;99577.62;4422915;32;33656;-76
2022/04/26 13:51:00;;;;;;;5.97;2.30;;;;;;;22.62;29.36;99581.41;4423304;32;35201;-77
2022/04/26 13:53:30;;;;;;;5.62;3.10;;;;;;;22.63;31.00;99577.50;4422460;32;33809;-76
2022/04/26 13:55:59;;;;;;;6.97;3.80;;;;;;;22.38;30.77;99586.88;4421441;32;32981;-76
2022/04/26 13:58:30;;;;;;;5.18;2.85;;;;;;;22.36;30.95;99577.94;4422281;32;33813;-80
2022/04/26 14:00:57;;;;;;;4.37;2.53;;;;;;;22.40;31.07;99578.22;4402062;32;33290;-80
2022/04/26 14:03:27;;;;;;;5.15;2.87;;;;;;;22.01;31.43;99577.03;4414634;32;34156;-79
2022/04/26 14:05:55;;;;;;;10.00;2.85;;;;;;;22.00;31.99;99575.34;4412869;32;34752;-80
2022/04/26 14:08:22;;;;;;;4.85;2.60;;;;;;;21.92;31.46;99583.47;4416265;32;33410;-80
2022/04/26 14:10:51;;;;;;;5.07;3.15;;;;;;;21.99;31.72;99590.44;4407914;32;32749;-80
2022/04/26 14:13:24;;;;;;;5.18;2.60;;;;;;;22.14;31.64;99580.31;4416694;32;33951;-79
2022/04/26 14:24:12;;;;;;;9.63;6.05;;;;;;;22.37;32.10;99584.38;4425835;32;34234;-80
2022/04/26 14:26:43;;;;;;;8.50;2.92;;;;;;;22.19;31.81;99577.50;4397108;32;33148;-79
2022/04/26 14:29:13;;;;;;;7.25;3.30;;;;;;;22.29;32.00;99574.63;4389809;32;34978;-79
2022/04/26 14:31:45;;;;;;;7.55;3.40;;;;;;;22.26;31.78;99569.63;4409565;32;34774;-79
2022/04/26 14:34:15;;;;;;;5.97;2.47;;;;;;;22.19;32.12;99577.50;4408803;32;33228;-79
2022/04/26 14:36:43;;;;;;;5.10;2.53;;;;;;;22.24;32.08;99572.69;4410762;32;33753;-79
2022/04/26 14:39:28;;;;;;;5.35;2.40;;;;;;;22.40;31.79;99576.25;4395815;32;32313;-79
2022/04/26 14:41:57;;;;;;;5.87;2.92;;;;;;;22.67;32.44;99573.81;4421863;32;35304;-79
2022/04/26 14:44:24;;;;;;;6.97;3.08;;;;;;;22.82;32.40;99566.44;4399581;32;32985;-79
2022/04/26 14:47:12;;;;;;;;;;;;;;;22.63;30.97;99566.31;4414443;32;33888;-78
2022/04/26 14:50:00;;;;;;;4.07;2.40;;;;;;;22.64;30.19;99566.00;4413564;32;32393;-79
2022/04/26 14:52:53;;;;;;;6.47;2.90;;;;;;;22.49;30.86;99571.72;4407251;32;36213;-80
2022/04/26 14:55:20;;;;;;;5.85;3.03;;;;;;;22.47;31.19;99567.53;4417604;32;35617;-79
2022/04/26 14:57:49;;;;;;;6.97;2.72;;;;;;;22.63;31.40;99561.53;4396832;32;33323;-79
2022/04/26 15:00:18;;;;;;;5.20;2.70;;;;;;;22.15;31.23;99568.00;4409822;32;34538;-79
2022/04/26 15:06:16;;;;;;;6.15;3.40;;;;;;;21.57;31.83;99557.34;4411102;32;33335;-78
2022/04/26 15:21:09;;;;;;;4.78;2.50;;;;;;;22.42;31.79;99553.59;4403900;32;33195;-81
2022/04/26 15:23:48;;;;;;;7.65;4.57;;;;;;;22.40;32.22;99545.47;4402038;32;34351;-82
2022/04/26 15:26:25;;;;;;;6.72;3.58;;;;;;;22.50;31.88;99550.19;4409837;32;34855;-82
2022/04/26 15:31:54;;;;;;;4.53;2.58;;;;;;;22.37;31.55;99546.06;4407798;32;33727;-81
2022/04/26 15:34:25;;;;;;;14.20;6.90;;;;;;;22.28;31.59;99537.44;4409271;32;34079;-81
2022/04/26 15:37:08;;;;;;;4.97;2.85;;;;;;;22.36;31.98;99538.81;4412544;32;34105;-84
2022/04/26 15:40:14;;;;;;;5.12;2.67;;;;;;;22.10;31.46;99542.91;4408781;32;34851;-82
2022/04/26 15:42:42;;;;;;;5.75;3.00;;;;;;;22.08;31.57;99536.78;4385848;32;32407;-77
2022/04/26 15:45:09;;;;;;;9.68;5.22;;;;;;;22.14;31.66;99530.81;4419946;32;34616;-77
2022/04/26 15:47:42;;;;;;;18.20;11.63;;;;;;;22.08;33.21;99534.81;4416346;32;35185;-76
2022/04/26 15:50:10;;;;;;;8.13;4.35;;;;;;;22.15;32.75;99531.66;4394948;32;34361;-77
2022/04/26 15:52:58;;;;;;;6.90;3.10;;;;;;;22.06;35.38;99539.84;4425249;32;32997;-76
2022/04/26 15:55:38;;;;;;;7.25;3.17;;;;;;;22.09;35.22;99539.28;4430053;32;33661;-80
2022/04/26 15:58:08;;;;;;;5.12;2.50;;;;;;;22.21;35.93;99544.50;4421800;32;33184;-80
2022/04/26 16:00:36;;;;;;;5.22;2.87;;;;;;;21.94;32.99;99534.56;4405028;32;34250;-82
2022/04/26 16:03:06;;;;;;;13.62;3.97;;;;;;;22.04;32.76;99547.69;4415932;32;33566;-81
2022/04/26 16:05:35;;;;;;;14.15;6.15;;;;;;;21.92;32.67;99539.59;4412911;32;33166;-81
2022/04/26 16:08:04;;;;;;;9.48;3.30;;;;;;;21.89;32.98;99539.34;4407154;32;33690;-81
2022/04/26 16:22:28;;;;;;;5.80;2.42;;;;;;;21.71;33.85;99535.22;4413408;32;33777;-81
2022/04/26 16:24:59;;;;;;;5.25;2.75;;;;;;;21.78;33.55;99529.34;4416592;32;32982;-81
2022/04/26 16:27:30;;;;;;;7.18;2.78;;;;;;;21.61;33.53;99535.28;4413185;32;32326;-81
2022/04/26 16:30:00;;;;;;;6.70;2.50;;;;;;;21.68;33.50;99533.00;4417174;32;34633;-81
2022/04/26 16:32:31;;;;;;;5.35;2.80;;;;;;;21.66;33.73;99530.50;4402643;32;33394;-81
2022/04/26 16:35:14;;;;;;;9.02;3.45;;;;;;;21.61;33.93;99529.69;4421257;32;34312;-81
2022/04/26 16:37:45;;;;;;;8.32;3.03;;;;;;;21.59;34.07;99540.31;4419556;32;32805;-81
2022/04/26 16:40:15;;;;;;;7.47;3.33;;;;;;;21.50;34.34;99534.47;4418859;32;34603;-80
2022/04/26 16:42:44;;;;;;;6.15;2.87;;;;;;;21.54;33.73;99540.31;4398666;32;34701;-81
2022/04/26 16:45:13;;;;;;;4.95;2.60;;;;;;;21.42;34.16;99543.47;4402248;32;31706;-81
2022/04/26 16:47:53;;;;;;;6.18;2.80;;;;;;;21.46;34.63;99536.16;4417494;32;33100;-81
2022/04/26 16:50:23;;;;;;;7.28;2.22;;;;;;;21.47;34.35;99551.78;4405706;32;34801;-82
2022/04/26 16:52:52;;;;;;;3.67;1.92;;;;;;;21.32;35.21;99547.12;4419283;32;34844;-80
2022/04/26 16:55:30;;;;;;;4.30;1.85;;;;;;;21.27;36.54;99549.06;4400505;32;33512;-80
2022/04/26 16:57:59;;;;;;;4.20;2.08;;;;;;;21.30;36.94;99548.50;4416493;32;33384;-80
2022/04/26 17:00:30;;;;;;;8.23;2.15;;;;;;;21.28;36.91;99553.53;4402735;32;33023;-81
2022/04/26 17:03:07;;;;;;;6.95;4.15;;;;;;;21.28;37.14;99557.16;4405935;32;34127;-80
2022/04/26 17:05:49;;;;;;;5.25;2.15;;;;;;;21.27;36.97;99549.06;4416917;32;33908;-80
2022/04/26 17:08:50;;;;;;;4.40;2.00;;;;;;;21.12;36.85;99555.50;4414458;32;32018;-80
2022/04/26 17:11:44;;;;;;;4.15;2.00;;;;;;;21.17;36.86;99549.91;4418662;32;34564;-81
2022/04/26 17:14:25;;;;;;;8.55;2.00;;;;;;;21.11;37.13;99547.41;4419670;32;33844;-81
2022/04/26 17:17:04;;;;;;;6.07;2.53;;;;;;;21.07;37.24;99551.87;4418635;32;31953;-81
2022/04/26 17:19:44;;;;;;;5.55;2.97;;;;;;;20.94;37.61;99559.69;4411970;32;33998;-81
2022/04/26 17:22:17;;;;;;;6.45;3.25;;;;;;;20.92;37.61;99555.50;4417427;32;36532;-81
2022/04/26 17:28:04;;;;;;;6.30;3.28;;;;;;;20.79;37.92;99558.87;4414491;32;31769;-79
2022/04/26 17:30:45;;;;;;;6.57;3.45;;;;;;;20.75;38.15;99554.97;4408284;32;32393;-81
2022/04/26 17:33:13;;;;;;;5.85;3.12;;;;;;;20.77;38.05;99561.13;4432862;32;34514;-82
2022/04/26 17:35:42;;;;;;;5.25;2.92;;;;;;;20.74;37.93;99558.87;4420849;32;35249;-82
2022/04/26 17:38:10;;;;;;;5.07;2.53;;;;;;;20.66;38.07;99561.13;4410910;32;34163;-83